createdAt,value
2023-01-17T00:02:17.276Z,100.00
2023-01-17T00:05:41.722Z,100.00
2023-01-17T00:09:06.305Z,100.00
2023-01-17T00:12:13.159Z,100.00
2023-01-17T00:15:21.371Z,100.00
2023-01-17T00:18:28.143Z,100.00
2023-01-17T00:21:52.128Z,100.00
2023-01-17T00:25:16.240Z,100.00
2023-01-17T00:28:22.248Z,100.00
2023-01-17T00:31:27.847Z,100.00
2023-01-17T00:34:33.374Z,100.00
2023-01-17T00:37:42.297Z,100.00
2023-01-17T00:40:48.708Z,100.00
2023-01-17T00:44:13.453Z,100.00
2023-01-17T00:47:39.449Z,100.00
2023-01-17T00:51:03.624Z,100.00
2023-01-17T00:54:31.108Z,100.00
2023-01-17T00:57:55.189Z,100.00
2023-01-17T01:01:23.610Z,100.00
2023-01-17T01:04:48.405Z,100.00
2023-01-17T01:08:12.951Z,100.00
2023-01-17T01:11:39.568Z,100.00
2023-01-17T01:15:04.328Z,100.00
2023-01-17T01:18:30.616Z,100.00
2023-01-17T01:21:55.133Z,100.00
2023-01-17T01:25:19.862Z,100.00
2023-01-17T01:28:44.970Z,100.00
2023-01-17T01:32:09.681Z,100.00
2023-01-17T01:35:17.790Z,100.00
2023-01-17T01:38:26.539Z,100.00
2023-01-17T01:41:33.215Z,100.00
2023-01-17T01:44:49.064Z,100.00
2023-01-17T01:47:59.317Z,100.00
2023-01-17T01:51:11.012Z,100.00
2023-01-17T01:54:21.786Z,100.00
2023-01-17T01:57:31.278Z,100.00
2023-01-17T02:00:41.049Z,100.00
2023-01-17T02:03:49.104Z,100.00
2023-01-17T02:07:02.125Z,100.00
2023-01-17T02:10:12.932Z,100.00
2023-01-17T02:13:22.021Z,100.00
2023-01-17T02:16:46.426Z,100.00
2023-01-17T02:20:35.207Z,100.00
2023-01-17T02:24:03.331Z,100.00
2023-01-17T02:27:25.015Z,100.00
2023-01-17T02:30:36.865Z,100.00
2023-01-17T02:33:51.727Z,100.00
2023-01-17T02:37:05.560Z,100.00
2023-01-17T02:40:16.436Z,100.00
2023-01-17T02:43:25.935Z,100.00
2023-01-17T02:46:32.728Z,100.00
2023-01-17T02:49:39.532Z,100.00
2023-01-17T02:52:59.936Z,100.00
2023-01-17T02:56:11.716Z,100.00
2023-01-17T02:59:34.608Z,100.00
2023-01-17T03:02:51.457Z,100.00
2023-01-17T03:06:04.345Z,100.00
2023-01-17T03:09:14.439Z,100.00
2023-01-17T03:12:22.315Z,100.00
2023-01-17T03:15:29.690Z,100.00
2023-01-17T03:18:36.421Z,100.00
2023-01-17T03:21:43.042Z,100.00
2023-01-17T03:24:49.740Z,100.00
2023-01-17T03:27:56.476Z,100.00
2023-01-17T03:31:03.152Z,100.00
2023-01-17T03:34:10.019Z,100.00
2023-01-17T03:37:17.208Z,100.00
2023-01-17T03:40:23.922Z,100.00
2023-01-17T03:43:30.612Z,100.00
2023-01-17T03:46:37.540Z,100.00
2023-01-17T03:49:44.583Z,100.00
2023-01-17T03:52:51.339Z,100.00
2023-01-17T03:55:57.911Z,100.00
2023-01-17T03:59:05.660Z,100.00
2023-01-17T04:02:12.537Z,100.00
2023-01-17T04:05:19.575Z,100.00
2023-01-17T04:08:26.795Z,100.00
2023-01-17T04:11:33.532Z,100.00
2023-01-17T04:14:41.121Z,100.00
2023-01-17T04:17:48.303Z,100.00
2023-01-17T04:20:54.993Z,100.00
2023-01-17T04:24:01.767Z,100.00
2023-01-17T04:27:09.172Z,100.00
2023-01-17T04:30:16.513Z,100.00
2023-01-17T04:33:23.199Z,100.00
2023-01-17T04:36:29.935Z,100.00
2023-01-17T04:39:36.728Z,100.00
2023-01-17T04:42:45.276Z,100.00
2023-01-17T04:45:58.372Z,100.00
2023-01-17T04:49:05.190Z,100.00
2023-01-17T04:52:11.895Z,100.00
2023-01-17T04:55:18.976Z,100.00
2023-01-17T04:58:25.742Z,100.00
2023-01-17T05:01:32.626Z,100.00
2023-01-17T05:04:39.679Z,100.00
2023-01-17T05:07:53.510Z,100.00
2023-01-17T05:11:00.300Z,100.00
2023-01-17T05:14:07.036Z,100.00
2023-01-17T05:17:13.753Z,100.00
2023-01-17T05:20:20.934Z,100.00
2023-01-17T05:23:28.066Z,100.00
2023-01-17T05:26:34.771Z,100.00
2023-01-17T05:29:41.996Z,100.00
2023-01-17T05:32:51.515Z,100.00
2023-01-17T05:35:58.252Z,100.00
2023-01-17T05:39:05.143Z,100.00
2023-01-17T05:42:11.827Z,100.00
2023-01-17T05:45:20.266Z,100.00
2023-01-17T05:48:27.181Z,100.00
2023-01-17T05:51:37.782Z,100.00
2023-01-17T05:54:47.215Z,100.00
2023-01-17T05:57:54.587Z,100.00
2023-01-17T06:01:01.439Z,100.00
2023-01-17T06:04:08.442Z,100.00
2023-01-17T06:07:15.268Z,100.00
2023-01-17T06:10:23.355Z,100.00
2023-01-17T06:13:30.217Z,100.00
2023-01-17T06:16:37.052Z,100.00
2023-01-17T06:19:44.103Z,100.00
2023-01-17T06:22:50.826Z,100.00
2023-01-17T06:25:57.808Z,100.00
2023-01-17T06:29:05.229Z,100.00
2023-01-17T06:32:13.475Z,100.00
2023-01-17T06:35:22.220Z,100.00
2023-01-17T06:38:30.159Z,100.00
2023-01-17T06:41:37.045Z,100.00
2023-01-17T06:44:44.032Z,100.00
2023-01-17T06:47:50.792Z,100.00
2023-01-17T06:50:58.055Z,100.00
2023-01-17T06:54:07.673Z,100.00
2023-01-17T06:57:12.933Z,100.00
2023-01-17T07:00:21.057Z,100.00
2023-01-17T07:03:29.067Z,100.00
2023-01-17T07:06:38.184Z,100.00
2023-01-17T07:09:45.123Z,100.00
2023-01-17T07:12:52.664Z,100.00
2023-01-17T07:16:01.400Z,99.92
2023-01-17T07:19:10.607Z,99.72
2023-01-17T07:22:17.469Z,99.72
2023-01-17T07:25:25.583Z,99.59
2023-01-17T07:28:34.204Z,99.13
2023-01-17T07:31:41.232Z,99.15
2023-01-17T07:34:48.048Z,99.03
2023-01-17T07:37:55.686Z,98.73
2023-01-17T07:41:02.675Z,98.30
2023-01-17T07:44:10.052Z,97.98
2023-01-17T07:47:16.881Z,97.44
2023-01-17T07:50:23.871Z,97.14
2023-01-17T07:53:32.778Z,96.63
2023-01-17T07:56:40.092Z,95.96
2023-01-17T07:59:47.145Z,95.84
2023-01-17T08:02:58.653Z,95.54
2023-01-17T08:06:06.811Z,95.47
2023-01-17T08:09:13.781Z,95.55
2023-01-17T08:12:21.896Z,95.19
2023-01-17T08:15:30.789Z,94.86
2023-01-17T08:18:37.681Z,94.80
2023-01-17T08:21:44.622Z,94.34
2023-01-17T08:24:51.302Z,93.97
2023-01-17T08:28:00.831Z,93.53
2023-01-17T08:31:11.299Z,93.04
2023-01-17T08:34:18.167Z,92.98
2023-01-17T08:37:25.347Z,92.71
2023-01-17T08:40:32.965Z,92.73
2023-01-17T08:43:42.238Z,92.52
2023-01-17T08:46:49.131Z,92.23
2023-01-17T08:49:56.118Z,91.57
2023-01-17T08:53:02.930Z,91.40
2023-01-17T08:56:12.066Z,91.34
2023-01-17T08:59:18.924Z,91.08
2023-01-17T09:02:25.927Z,91.00
2023-01-17T09:05:34.220Z,90.78
2023-01-17T09:08:41.738Z,90.56
2023-01-17T09:11:48.600Z,90.47
2023-01-17T09:14:56.477Z,89.81
2023-01-17T09:18:03.488Z,89.88
2023-01-17T09:21:15.259Z,89.92
2023-01-17T09:24:22.159Z,89.29
2023-01-17T09:27:28.867Z,89.54
2023-01-17T09:30:36.110Z,89.07
2023-01-17T09:33:43.379Z,89.11
2023-01-17T09:36:50.314Z,88.55
2023-01-17T09:39:57.143Z,88.32
2023-01-17T09:43:08.871Z,88.03
2023-01-17T09:46:22.779Z,88.20
2023-01-17T09:49:40.856Z,88.05
2023-01-17T09:52:48.094Z,87.18
2023-01-17T09:55:59.307Z,87.09
2023-01-17T09:59:33.264Z,86.75
2023-01-17T10:03:04.180Z,85.68
2023-01-17T10:06:23.533Z,84.83
2023-01-17T10:09:38.604Z,83.47
2023-01-17T10:12:57.655Z,82.96
2023-01-17T10:16:18.296Z,81.51
2023-01-17T10:19:42.874Z,81.44
2023-01-17T10:23:10.894Z,80.03
2023-01-17T10:26:21.563Z,79.68
2023-01-17T10:29:34.114Z,78.74
2023-01-17T10:32:48.221Z,77.41
2023-01-17T10:36:01.415Z,75.59
2023-01-17T10:39:26.553Z,74.39
2023-01-17T10:42:47.491Z,74.09
2023-01-17T10:45:57.772Z,73.23
2023-01-17T10:49:05.125Z,73.53
2023-01-17T10:52:19.200Z,74.38
2023-01-17T10:55:39.114Z,73.73
2023-01-17T10:58:48.217Z,72.95
2023-01-17T11:01:55.154Z,71.36
2023-01-17T11:05:12.269Z,71.46
2023-01-17T11:08:22.653Z,70.58
2023-01-17T11:11:32.175Z,69.83
2023-01-17T11:14:37.855Z,70.61
2023-01-17T11:17:50.070Z,69.77
2023-01-17T11:21:13.022Z,70.40
2023-01-17T11:24:28.299Z,71.34
2023-01-17T11:27:39.517Z,70.47
2023-01-17T11:30:54.755Z,70.98
2023-01-17T11:34:17.945Z,71.68
2023-01-17T11:37:26.362Z,72.16
2023-01-17T11:40:37.540Z,71.76
2023-01-17T11:43:53.361Z,72.17
2023-01-17T11:47:20.254Z,72.40
2023-01-17T11:50:28.716Z,72.32
2023-01-17T11:53:38.257Z,73.14
2023-01-17T11:56:46.579Z,72.97
2023-01-17T11:59:58.563Z,72.65
2023-01-17T12:03:21.228Z,72.85
2023-01-17T12:06:56.500Z,72.85
2023-01-17T12:10:13.970Z,71.97
2023-01-17T12:13:45.838Z,71.65
2023-01-17T12:17:06.123Z,71.12
2023-01-17T12:20:22.681Z,71.29
2023-01-17T12:23:57.950Z,70.76
2023-01-17T12:27:12.881Z,70.87
2023-01-17T12:30:35.671Z,70.32
2023-01-17T12:33:51.922Z,70.21
2023-01-17T12:37:04.350Z,69.73
2023-01-17T12:40:22.171Z,68.49
2023-01-17T12:43:33.571Z,67.67
2023-01-17T12:46:49.128Z,67.95
2023-01-17T12:50:03.340Z,67.82
2023-01-17T12:53:20.784Z,67.47
2023-01-17T12:56:33.356Z,67.53
2023-01-17T12:59:46.428Z,67.62
2023-01-17T13:03:00.880Z,67.58
2023-01-17T13:06:12.187Z,68.06
2023-01-17T13:09:23.619Z,69.47
2023-01-17T13:12:33.908Z,70.10
2023-01-17T13:15:44.007Z,70.75
2023-01-17T13:18:52.211Z,71.58
2023-01-17T13:22:02.033Z,72.27
2023-01-17T13:25:22.946Z,72.38
2023-01-17T13:28:45.043Z,72.87
2023-01-17T13:32:06.720Z,73.33
2023-01-17T13:35:27.713Z,73.62
2023-01-17T13:38:55.023Z,73.43
2023-01-17T13:42:18.067Z,73.53
2023-01-17T13:45:28.092Z,72.56
2023-01-17T13:48:38.518Z,72.07
2023-01-17T13:52:10.834Z,72.51
2023-01-17T13:55:47.145Z,72.43
2023-01-17T13:59:03.425Z,72.37
2023-01-17T14:02:39.528Z,72.48
2023-01-17T14:05:56.989Z,72.91
2023-01-17T14:09:12.006Z,72.82
2023-01-17T14:12:31.989Z,72.68
2023-01-17T14:15:51.379Z,72.74
2023-01-17T14:18:58.664Z,72.78
2023-01-17T14:22:27.357Z,72.78
2023-01-17T14:25:41.764Z,72.79
2023-01-17T14:28:48.857Z,73.03
2023-01-17T14:32:06.650Z,73.20
2023-01-17T14:35:24.063Z,73.04
2023-01-17T14:38:33.085Z,73.31
2023-01-17T14:41:40.262Z,73.44
2023-01-17T14:44:53.305Z,73.95
2023-01-17T14:48:03.313Z,74.28
2023-01-17T14:51:16.135Z,74.83
2023-01-17T14:54:24.778Z,75.27
2023-01-17T14:57:32.014Z,75.43
2023-01-17T15:00:42.201Z,75.91
2023-01-17T15:03:51.629Z,76.23
2023-01-17T15:07:00.553Z,76.51
2023-01-17T15:10:12.896Z,76.78
2023-01-17T15:13:32.497Z,77.11
2023-01-17T15:16:45.849Z,77.21
2023-01-17T15:19:56.913Z,77.61
2023-01-17T15:23:04.183Z,77.86
2023-01-17T15:26:15.141Z,78.08
2023-01-17T15:29:27.116Z,78.07
2023-01-17T15:32:34.352Z,77.96
2023-01-17T15:35:40.985Z,77.68
2023-01-17T15:38:55.755Z,77.64
2023-01-17T15:42:06.565Z,77.44
2023-01-17T15:45:19.904Z,77.18
2023-01-17T15:48:38.669Z,77.03
2023-01-17T15:51:52.199Z,76.61
2023-01-17T15:55:13.566Z,76.49
2023-01-17T15:58:28.551Z,76.57
2023-01-17T16:01:35.703Z,76.14
2023-01-17T16:04:42.983Z,76.12
2023-01-17T16:07:51.235Z,76.10
2023-01-17T16:11:03.640Z,76.25
2023-01-17T16:14:10.500Z,76.39
2023-01-17T16:17:18.783Z,76.50
2023-01-17T16:20:29.502Z,76.82
2023-01-17T16:23:36.461Z,76.97
2023-01-17T16:26:43.483Z,77.30
2023-01-17T16:29:50.326Z,77.38
2023-01-17T16:32:58.648Z,77.41
2023-01-17T16:36:05.792Z,77.77
2023-01-17T16:39:16.302Z,78.03
2023-01-17T16:42:23.168Z,78.25
2023-01-17T16:45:30.026Z,78.41
2023-01-17T16:48:39.597Z,78.77
2023-01-17T16:51:48.493Z,78.97
2023-01-17T16:54:55.684Z,79.14
2023-01-17T16:58:02.697Z,79.37
2023-01-17T17:01:15.569Z,79.49
2023-01-17T17:04:22.806Z,79.56
2023-01-17T17:07:29.988Z,79.85
2023-01-17T17:10:36.866Z,79.92
2023-01-17T17:13:45.361Z,80.23
2023-01-17T17:16:52.787Z,80.45
2023-01-17T17:19:59.983Z,80.76
2023-01-17T17:23:06.934Z,81.09
2023-01-17T17:26:13.750Z,81.34
2023-01-17T17:29:20.967Z,81.71
2023-01-17T17:32:28.346Z,81.83
2023-01-17T17:35:37.265Z,82.19
2023-01-17T17:38:51.715Z,82.49
2023-01-17T17:41:58.727Z,82.76
2023-01-17T17:45:06.633Z,83.07
2023-01-17T17:48:13.476Z,83.28
2023-01-17T17:51:26.919Z,83.50
2023-01-17T17:54:33.781Z,84.07
2023-01-17T17:57:40.574Z,84.60
2023-01-17T18:00:47.811Z,84.98
2023-01-17T18:03:57.360Z,85.46
2023-01-17T18:07:04.332Z,85.57
2023-01-17T18:10:12.905Z,85.83
2023-01-17T18:13:19.702Z,86.03
2023-01-17T18:16:29.461Z,86.38
2023-01-17T18:19:36.338Z,86.34
2023-01-17T18:22:43.930Z,86.29
2023-01-17T18:25:51.021Z,85.92
2023-01-17T18:28:59.889Z,85.97
2023-01-17T18:32:07.109Z,86.24
2023-01-17T18:35:13.968Z,86.28
2023-01-17T18:38:20.814Z,86.33
2023-01-17T18:41:29.196Z,86.57
2023-01-17T18:44:36.001Z,87.11
2023-01-17T18:47:43.119Z,87.56
2023-01-17T18:50:59.407Z,88.18
2023-01-17T18:54:08.852Z,88.86
2023-01-17T18:57:14.368Z,88.94
2023-01-17T19:00:23.482Z,88.86
2023-01-17T19:03:31.612Z,88.76
2023-01-17T19:06:41.591Z,88.99
2023-01-17T19:09:48.639Z,89.21
2023-01-17T19:12:55.431Z,89.64
2023-01-17T19:16:04.166Z,90.39
2023-01-17T19:19:14.028Z,90.96
2023-01-17T19:22:21.697Z,91.21
2023-01-17T19:25:28.605Z,91.24
2023-01-17T19:28:38.179Z,91.48
2023-01-17T19:31:43.764Z,91.66
2023-01-17T19:34:50.828Z,91.53
2023-01-17T19:37:57.987Z,91.65
2023-01-17T19:41:14.764Z,91.89
2023-01-17T19:44:21.863Z,92.36
2023-01-17T19:47:28.693Z,92.66
2023-01-17T19:50:35.573Z,93.04
2023-01-17T19:53:43.313Z,93.24
2023-01-17T19:56:50.203Z,93.45
2023-01-17T19:59:57.006Z,93.52
2023-01-17T20:03:03.655Z,93.87
2023-01-17T20:06:11.851Z,94.35
2023-01-17T20:09:19.346Z,94.78
2023-01-17T20:12:26.209Z,95.20
2023-01-17T20:15:33.195Z,95.42
2023-01-17T20:18:41.540Z,95.51
2023-01-17T20:21:48.305Z,95.52
2023-01-17T20:24:55.347Z,95.33
2023-01-17T20:28:04.914Z,94.97
2023-01-17T20:31:12.738Z,94.64
2023-01-17T20:34:19.686Z,94.86
2023-01-17T20:37:26.596Z,95.09
2023-01-17T20:40:33.799Z,95.54
2023-01-17T20:43:40.825Z,96.67
2023-01-17T20:46:48.730Z,97.44
2023-01-17T20:49:55.633Z,97.34
2023-01-17T20:53:02.309Z,97.27
2023-01-17T20:56:09.861Z,97.73
2023-01-17T20:59:19.439Z,98.02
2023-01-17T21:02:24.752Z,97.97
2023-01-17T21:05:31.523Z,98.12
2023-01-17T21:08:39.416Z,98.24
2023-01-17T21:11:46.854Z,98.49
2023-01-17T21:14:53.828Z,98.80
2023-01-17T21:18:00.507Z,99.02
2023-01-17T21:21:09.090Z,98.98
2023-01-17T21:24:18.778Z,99.13
2023-01-17T21:27:25.600Z,99.35
2023-01-17T21:30:32.362Z,99.12
2023-01-17T21:33:39.183Z,99.14
2023-01-17T21:36:46.023Z,99.74
2023-01-17T21:39:54.973Z,99.90
2023-01-17T21:43:01.801Z,99.86
2023-01-17T21:46:08.869Z,99.79
2023-01-17T21:49:17.311Z,99.93
2023-01-17T21:52:24.425Z,99.99
2023-01-17T21:55:49.114Z,100.00
2023-01-17T21:58:57.549Z,100.00
2023-01-17T22:02:04.193Z,100.00
2023-01-17T22:05:12.612Z,100.00
2023-01-17T22:08:19.490Z,100.00
2023-01-17T22:11:30.592Z,100.00
2023-01-17T22:14:38.642Z,100.00
2023-01-17T22:17:46.591Z,100.00
2023-01-17T22:20:53.293Z,100.00
2023-01-17T22:24:01.385Z,100.00
2023-01-17T22:27:09.906Z,100.00
2023-01-17T22:30:19.549Z,100.00
2023-01-17T22:33:24.699Z,100.00
2023-01-17T22:36:34.987Z,100.00
2023-01-17T22:39:42.036Z,100.00
2023-01-17T22:42:48.931Z,100.00
2023-01-17T22:46:02.254Z,100.00
2023-01-17T22:49:10.600Z,100.00
2023-01-17T22:52:17.395Z,100.00
2023-01-17T22:55:24.296Z,100.00
2023-01-17T22:58:31.745Z,100.00
2023-01-17T23:01:40.586Z,100.00
2023-01-17T23:04:48.997Z,100.00
2023-01-17T23:07:55.972Z,100.00
2023-01-17T23:11:20.096Z,100.00
2023-01-17T23:14:29.514Z,100.00
2023-01-17T23:18:08.535Z,100.00
2023-01-17T23:21:15.218Z,100.00
2023-01-17T23:24:22.015Z,100.00
2023-01-17T23:27:49.817Z,100.00
2023-01-17T23:31:01.574Z,100.00
2023-01-17T23:34:08.219Z,100.00
2023-01-17T23:37:14.933Z,100.00
2023-01-17T23:40:21.968Z,100.00
2023-01-17T23:43:28.627Z,100.00
2023-01-17T23:46:35.451Z,100.00
2023-01-17T23:49:43.488Z,100.00
2023-01-17T23:52:50.272Z,100.00
2023-01-17T23:55:59.517Z,100.00
2023-01-17T23:59:06.379Z,100.00
